Time,TemperatureF,DewpointF,PressureIn,WindDirection,WindDirectionDegrees,WindSpeedMPH,WindSpeedGustMPH,Humidity,HourlyPrecipIn,Conditions,Clouds,dailyrainin,SoftwareType,DateUTC
2013-01-25 00:03:00,37.6,29.4,30.06,South,180,0.0,0.0,72,0.00,,,0.00,WUHU21623XXSP,2013-01-25 08:03:00,
2013-01-25 00:08:00,37.8,29.9,30.07,South,180,0.0,0.0,73,0.00,,,0.00,WUHU21623XXSP,2013-01-25 08:08:00,
2013-01-25 00:14:00,37.9,30.0,30.06,South,180,0.0,0.0,73,0.00,,,0.00,WUHU21623XXSP,2013-01-25 08:14:00,
2013-01-25 00:19:00,37.9,30.0,30.06,South,180,0.0,0.0,73,0.00,,,0.00,WUHU21623XXSP,2013-01-25 08:19:00,
2013-01-25 00:24:00,37.8,30.2,30.06,South,180,0.0,0.0,74,0.00,,,0.00,WUHU21623XXSP,2013-01-25 08:24:00,
2013-01-25 00:29:00,37.6,30.4,30.06,South,180,0.0,0.0,75,0.00,,,0.00,WUHU21623XXSP,2013-01-25 08:29:00,
2013-01-25 00:35:00,37.6,30.4,30.06,South,180,0.0,0.0,75,0.00,,,0.00,WUHU21623XXSP,2013-01-25 08:35:00,
2013-01-25 00:40:00,37.4,30.5,30.06,SSW,202,0.0,1.6,76,0.00,,,0.00,WUHU21623XXSP,2013-01-25 08:40:00,
2013-01-25 00:45:00,37.2,30.7,30.06,SSW,202,0.0,1.6,77,0.00,,,0.00,WUHU21623XXSP,2013-01-25 08:45:00,
2013-01-25 00:50:00,37.2,30.7,30.06,SSW,202,0.0,0.0,77,0.00,,,0.00,WUHU21623XXSP,2013-01-25 08:50:00,
2013-01-25 00:56:00,37.4,30.8,30.06,SSW,202,0.0,0.0,77,0.00,,,0.00,WUHU21623XXSP,2013-01-25 08:56:00,
2013-01-25 01:01:00,37.4,30.8,30.06,SSW,202,0.0,0.0,77,0.00,,,0.00,WUHU21623XXSP,2013-01-25 09:01:00,
2013-01-25 01:06:00,37.4,30.8,30.06,SSW,202,0.0,0.0,77,0.00,,,0.00,WUHU21623XXSP,2013-01-25 09:06:00,
2013-01-25 01:11:00,37.4,30.8,30.06,SSW,202,0.0,0.0,77,0.00,,,0.00,WUHU21623XXSP,2013-01-25 09:11:00,
2013-01-25 01:17:00,37.4,30.8,30.06,SSW,202,0.0,0.0,77,0.00,,,0.00,WUHU21623XXSP,2013-01-25 09:17:00,
2013-01-25 01:22:00,37.2,31.0,30.06,SSW,202,0.0,0.0,78,0.00,,,0.00,WUHU21623XXSP,2013-01-25 09:22:00,
2013-01-25 01:27:00,37.2,30.7,30.06,SSW,202,0.0,0.0,77,0.00,,,0.00,WUHU21623XXSP,2013-01-25 09:27:00,
2013-01-25 01:32:00,37.2,31.0,30.06,SSW,202,0.0,0.0,78,0.00,,,0.00,WUHU21623XXSP,2013-01-25 09:32:00,
2013-01-25 01:37:00,37.2,31.0,30.06,SSW,202,0.0,0.0,78,0.00,,,0.00,WUHU21623XXSP,2013-01-25 09:37:00,
2013-01-25 01:43:00,37.2,31.0,30.05,SSW,202,0.0,0.0,78,0.00,,,0.00,WUHU21623XXSP,2013-01-25 09:43:00,
2013-01-25 01:48:00,37.0,30.8,30.05,SSW,202,0.0,0.0,78,0.00,,,0.00,WUHU21623XXSP,2013-01-25 09:48:00,
2013-01-25 01:53:00,37.0,30.8,30.05,SSW,202,0.0,0.0,78,0.00,,,0.00,WUHU21623XXSP,2013-01-25 09:53:00,
2013-01-25 01:58:00,36.9,30.6,30.04,SSW,202,0.0,0.0,78,0.00,,,0.00,WUHU21623XXSP,2013-01-25 09:58:00,
2013-01-25 02:04:00,36.7,30.5,30.05,SSW,202,0.0,0.0,78,0.00,,,0.00,WUHU21623XXSP,2013-01-25 10:04:00,
2013-01-25 02:09:00,36.7,30.5,30.05,SSW,202,0.0,0.0,78,0.00,,,0.00,WUHU21623XXSP,2013-01-25 10:09:00,
2013-01-25 02:14:00,36.7,30.5,30.06,SSW,202,0.0,0.0,78,0.00,,,0.00,WUHU21623XXSP,2013-01-25 10:14:00,
2013-01-25 02:19:00,36.7,30.5,30.05,SSW,202,0.0,0.0,78,0.00,,,0.00,WUHU21623XXSP,2013-01-25 10:19:00,
2013-01-25 02:25:00,36.7,30.5,30.05,SSW,202,0.0,0.0,78,0.00,,,0.00,WUHU21623XXSP,2013-01-25 10:25:00,
2013-01-25 02:30:00,36.7,30.5,30.05,SSW,202,0.0,0.0,78,0.00,,,0.00,WUHU21623XXSP,2013-01-25 10:30:00,
2013-01-25 02:35:00,36.7,30.5,30.05,SSW,202,0.0,0.0,78,0.00,,,0.00,WUHU21623XXSP,2013-01-25 10:35:00,
2013-01-25 02:40:00,36.7,30.8,30.05,SSW,202,0.0,0.0,79,0.00,,,0.00,WUHU21623XXSP,2013-01-25 10:40:00,
2013-01-25 02:45:00,36.7,30.8,30.05,SSW,202,0.0,0.0,79,0.00,,,0.00,WUHU21623XXSP,2013-01-25 10:45:00,
2013-01-25 02:51:00,36.7,30.8,30.04,SSW,202,0.0,0.0,79,0.00,,,0.00,WUHU21623XXSP,2013-01-25 10:51:00,
2013-01-25 02:56:00,36.5,30.3,30.04,SSW,202,0.0,0.0,78,0.00,,,0.00,WUHU21623XXSP,2013-01-25 10:56:00,
2013-01-25 03:01:00,36.3,30.4,30.04,SSW,202,0.0,0.0,79,0.00,,,0.00,WUHU21623XXSP,2013-01-25 11:01:00,
2013-01-25 03:06:00,36.3,30.4,30.04,SSW,202,0.0,0.0,79,0.00,,,0.00,WUHU21623XXSP,2013-01-25 11:06:00,
2013-01-25 03:12:00,36.3,30.4,30.04,SSW,202,0.0,0.0,79,0.00,,,0.00,WUHU21623XXSP,2013-01-25 11:12:00,
2013-01-25 03:17:00,36.3,30.4,30.04,SSW,202,0.0,0.0,79,0.00,,,0.00,WUHU21623XXSP,2013-01-25 11:17:00,
2013-01-25 03:22:00,36.3,30.4,30.03,SSW,202,0.0,0.0,79,0.00,,,0.00,WUHU21623XXSP,2013-01-25 11:22:00,
2013-01-25 03:27:00,36.3,30.4,30.03,SSW,202,0.0,0.0,79,0.00,,,0.00,WUHU21623XXSP,2013-01-25 11:27:00,
2013-01-25 03:33:00,36.3,30.4,30.03,SSW,202,0.0,0.0,79,0.00,,,0.00,WUHU21623XXSP,2013-01-25 11:33:00,
2013-01-25 03:38:00,36.3,30.4,30.04,SSW,202,0.0,0.0,79,0.00,,,0.00,WUHU21623XXSP,2013-01-25 11:38:00,
2013-01-25 03:43:00,36.1,30.2,30.03,SSW,202,0.0,0.0,79,0.00,,,0.00,WUHU21623XXSP,2013-01-25 11:43:00,
2013-01-25 03:48:00,35.8,29.9,30.03,SSW,202,0.0,0.0,79,0.00,,,0.00,WUHU21623XXSP,2013-01-25 11:48:00,
2013-01-25 03:54:00,35.8,29.9,30.03,SSW,202,0.0,0.0,79,0.00,,,0.00,WUHU21623XXSP,2013-01-25 11:54:00,
2013-01-25 03:59:00,35.8,29.9,30.02,SSW,202,0.0,0.0,79,0.00,,,0.00,WUHU21623XXSP,2013-01-25 11:59:00,
2013-01-25 04:04:00,35.4,29.5,30.02,SSW,202,0.0,0.0,79,0.00,,,0.00,WUHU21623XXSP,2013-01-25 12:04:00,
2013-01-25 04:09:00,35.4,29.5,30.02,SSW,202,0.0,0.0,79,0.00,,,0.00,WUHU21623XXSP,2013-01-25 12:09:00,
2013-01-25 04:14:00,35.4,29.5,30.02,SSW,202,0.0,0.0,79,0.00,,,0.00,WUHU21623XXSP,2013-01-25 12:14:00,
2013-01-25 04:20:00,35.2,29.3,30.03,SSW,202,0.0,0.0,79,0.00,,,0.00,WUHU21623XXSP,2013-01-25 12:20:00,
2013-01-25 04:25:00,35.2,29.7,30.03,SSW,202,0.0,0.0,80,0.00,,,0.00,WUHU21623XXSP,2013-01-25 12:25:00,
2013-01-25 04:30:00,35.2,29.7,30.02,SSW,202,0.0,0.0,80,0.00,,,0.00,WUHU21623XXSP,2013-01-25 12:30:00,
2013-01-25 04:35:00,35.2,29.7,30.03,SSW,202,0.0,0.0,80,0.00,,,0.00,WUHU21623XXSP,2013-01-25 12:35:00,
2013-01-25 04:41:00,35.2,29.7,30.03,SSW,202,0.0,0.0,80,0.00,,,0.00,WUHU21623XXSP,2013-01-25 12:41:00,
2013-01-25 04:46:00,35.2,29.7,30.03,SSW,202,0.0,0.0,80,0.00,,,0.00,WUHU21623XXSP,2013-01-25 12:46:00,
2013-01-25 04:51:00,35.2,29.7,30.03,SSW,202,0.0,0.0,80,0.00,,,0.00,WUHU21623XXSP,2013-01-25 12:51:00,
2013-01-25 04:56:00,35.2,29.7,30.03,SSW,202,0.0,0.0,80,0.00,,,0.00,WUHU21623XXSP,2013-01-25 12:56:00,
2013-01-25 05:02:00,35.2,29.7,30.03,SSW,202,0.0,0.0,80,0.00,,,0.00,WUHU21623XXSP,2013-01-25 13:02:00,
2013-01-25 05:07:00,35.2,29.7,30.02,SSW,202,0.0,0.0,80,0.00,,,0.00,WUHU21623XXSP,2013-01-25 13:07:00,
2013-01-25 05:12:00,35.2,29.7,30.01,SSW,202,0.0,0.0,80,0.00,,,0.00,WUHU21623XXSP,2013-01-25 13:12:00,
2013-01-25 05:17:00,35.2,29.7,30.02,SSW,202,0.0,0.0,80,0.00,,,0.00,WUHU21623XXSP,2013-01-25 13:17:00,
2013-01-25 05:22:00,35.2,29.7,30.01,SSW,202,0.0,0.0,80,0.00,,,0.00,WUHU21623XXSP,2013-01-25 13:22:00,
2013-01-25 05:28:00,35.2,29.7,30.01,SSW,202,0.0,0.0,80,0.00,,,0.00,WUHU21623XXSP,2013-01-25 13:28:00,
2013-01-25 05:33:00,35.2,29.7,30.02,South,180,0.0,1.1,80,0.00,,,0.00,WUHU21623XXSP,2013-01-25 13:33:00,
2013-01-25 05:38:00,34.9,29.6,30.02,South,180,0.0,0.0,81,0.00,,,0.00,WUHU21623XXSP,2013-01-25 13:38:00,
2013-01-25 05:43:00,35.2,29.9,30.01,South,180,0.0,0.0,81,0.00,,,0.00,WUHU21623XXSP,2013-01-25 13:43:00,
2013-01-25 05:49:00,35.2,29.9,30.02,South,180,0.0,0.0,81,0.00,,,0.00,WUHU21623XXSP,2013-01-25 13:49:00,
2013-01-25 05:54:00,35.2,29.9,30.02,South,180,0.0,0.0,81,0.00,,,0.00,WUHU21623XXSP,2013-01-25 13:54:00,
2013-01-25 05:59:00,35.2,29.9,30.02,South,180,0.0,0.0,81,0.00,,,0.00,WUHU21623XXSP,2013-01-25 13:59:00,
2013-01-25 06:04:00,35.4,30.1,30.02,South,180,0.0,0.0,81,0.00,,,0.00,WUHU21623XXSP,2013-01-25 14:04:00,
2013-01-25 06:10:00,35.4,30.1,30.02,South,180,0.0,0.0,81,0.00,,,0.00,WUHU21623XXSP,2013-01-25 14:10:00,
2013-01-25 06:15:00,35.4,30.1,30.01,SSW,202,0.0,0.0,81,0.00,,,0.00,WUHU21623XXSP,2013-01-25 14:15:00,
2013-01-25 06:20:00,35.4,30.1,30.01,SSW,202,0.0,0.0,81,0.00,,,0.00,WUHU21623XXSP,2013-01-25 14:20:00,
2013-01-25 06:25:00,35.4,30.1,30.02,SSW,202,0.0,0.0,81,0.00,,,0.00,WUHU21623XXSP,2013-01-25 14:25:00,
2013-01-25 06:31:00,35.6,30.3,30.01,SSW,202,0.0,0.0,81,0.00,,,0.00,WUHU21623XXSP,2013-01-25 14:31:00,
2013-01-25 06:36:00,35.6,30.3,30.01,SSW,202,0.0,0.0,81,0.00,,,0.00,WUHU21623XXSP,2013-01-25 14:36:00,
2013-01-25 06:42:00,35.4,30.1,30.02,SSW,202,0.0,0.0,81,0.00,,,0.00,WUHU21623XXSP,2013-01-25 14:42:00,
2013-01-25 06:47:00,35.4,30.1,30.02,SSW,202,0.0,0.0,81,0.00,,,0.00,WUHU21623XXSP,2013-01-25 14:47:00,
2013-01-25 06:52:00,35.6,30.3,30.02,SSW,202,0.0,0.0,81,0.00,,,0.00,WUHU21623XXSP,2013-01-25 14:52:00,
2013-01-25 06:57:00,35.8,30.5,30.02,SSW,202,0.0,0.0,81,0.00,,,0.00,WUHU21623XXSP,2013-01-25 14:57:00,
2013-01-25 07:03:00,35.8,30.5,30.02,SSW,202,0.0,0.0,81,0.00,,,0.00,WUHU21623XXSP,2013-01-25 15:03:00,
2013-01-25 07:08:00,35.8,30.5,30.02,SSW,202,0.0,0.0,81,0.00,,,0.00,WUHU21623XXSP,2013-01-25 15:08:00,
2013-01-25 07:13:00,35.6,30.3,30.02,SSW,202,0.0,0.0,81,0.00,,,0.00,WUHU21623XXSP,2013-01-25 15:13:00,
2013-01-25 07:18:00,35.6,30.3,30.03,SSW,202,0.0,0.0,81,0.00,,,0.00,WUHU21623XXSP,2013-01-25 15:18:00,
2013-01-25 07:24:00,35.8,30.5,30.03,SSW,202,0.0,0.0,81,0.00,,,0.00,WUHU21623XXSP,2013-01-25 15:24:00,
2013-01-25 07:29:00,35.8,30.8,30.03,SSW,202,0.0,0.0,82,0.00,,,0.00,WUHU21623XXSP,2013-01-25 15:29:00,
2013-01-25 07:34:00,35.8,30.8,30.03,SSW,202,0.0,0.0,82,0.00,,,0.00,WUHU21623XXSP,2013-01-25 15:34:00,
2013-01-25 07:39:00,35.8,30.8,30.02,SSW,202,0.0,0.0,82,0.00,,,0.00,WUHU21623XXSP,2013-01-25 15:39:00,
2013-01-25 07:45:00,35.8,30.8,30.02,SSW,202,0.0,0.0,82,0.00,,,0.00,WUHU21623XXSP,2013-01-25 15:45:00,
2013-01-25 07:50:00,35.8,30.8,30.02,SSW,202,0.0,0.0,82,0.00,,,0.00,WUHU21623XXSP,2013-01-25 15:50:00,
2013-01-25 07:55:00,36.0,31.0,30.02,SSW,202,0.0,0.0,82,0.00,,,0.00,WUHU21623XXSP,2013-01-25 15:55:00,
2013-01-25 08:00:00,36.0,31.2,30.03,SSW,202,0.0,0.0,83,0.00,,,0.00,WUHU21623XXSP,2013-01-25 16:00:00,
2013-01-25 08:05:00,36.0,31.2,30.03,SSW,202,0.0,0.0,83,0.00,,,0.00,WUHU21623XXSP,2013-01-25 16:05:00,
2013-01-25 08:11:00,36.0,31.2,30.03,SSW,202,0.0,0.0,83,0.00,,,0.00,WUHU21623XXSP,2013-01-25 16:11:00,
2013-01-25 08:16:00,36.1,31.4,30.03,SSW,202,0.0,0.0,83,0.00,,,0.00,WUHU21623XXSP,2013-01-25 16:16:00,
2013-01-25 08:21:00,36.1,31.4,30.03,SSW,202,0.0,0.0,83,0.00,,,0.00,WUHU21623XXSP,2013-01-25 16:21:00,
2013-01-25 08:26:00,36.3,31.9,30.02,SSW,202,0.0,0.0,84,0.00,,,0.00,WUHU21623XXSP,2013-01-25 16:26:00,
2013-01-25 08:32:00,36.3,31.9,30.03,SSW,202,0.0,2.5,84,0.00,,,0.00,WUHU21623XXSP,2013-01-25 16:32:00,
2013-01-25 08:37:00,36.3,31.9,30.03,SSW,202,0.0,2.5,84,0.00,,,0.00,WUHU21623XXSP,2013-01-25 16:37:00,
2013-01-25 08:42:00,36.3,31.9,30.02,SSW,202,0.0,0.0,84,0.00,,,0.00,WUHU21623XXSP,2013-01-25 16:42:00,
2013-01-25 08:47:00,36.5,32.1,30.02,SSW,202,0.0,0.0,84,0.00,,,0.00,WUHU21623XXSP,2013-01-25 16:47:00,
2013-01-25 08:53:00,36.5,32.1,30.02,SSW,202,0.0,0.0,84,0.00,,,0.00,WUHU21623XXSP,2013-01-25 16:53:00,
2013-01-25 08:58:00,36.5,32.1,30.02,SSW,202,0.0,0.0,84,0.00,,,0.00,WUHU21623XXSP,2013-01-25 16:58:00,
2013-01-25 09:03:00,36.5,32.1,30.01,SSW,202,0.0,0.0,84,0.00,,,0.00,WUHU21623XXSP,2013-01-25 17:03:00,
2013-01-25 09:08:00,36.5,32.1,30.01,SSW,202,0.0,0.0,84,0.00,,,0.00,WUHU21623XXSP,2013-01-25 17:08:00,
2013-01-25 09:13:00,36.7,32.3,30.01,SSW,202,0.0,0.0,84,0.00,,,0.00,WUHU21623XXSP,2013-01-25 17:13:00,
2013-01-25 09:19:00,36.9,32.4,30.01,SSW,202,0.0,0.0,84,0.00,,,0.00,WUHU21623XXSP,2013-01-25 17:19:00,
2013-01-25 09:24:00,37.2,32.8,30.00,SSW,202,0.0,0.0,84,0.00,,,0.00,WUHU21623XXSP,2013-01-25 17:24:00,
2013-01-25 09:29:00,37.2,32.8,30.01,SSW,202,0.0,0.0,84,0.00,,,0.00,WUHU21623XXSP,2013-01-25 17:29:00,
2013-01-25 09:34:00,37.2,32.8,30.01,SSW,202,0.0,0.0,84,0.00,,,0.00,WUHU21623XXSP,2013-01-25 17:34:00,
2013-01-25 09:40:00,37.4,33.0,30.01,SSW,202,0.0,0.0,84,0.00,,,0.00,WUHU21623XXSP,2013-01-25 17:40:00,
2013-01-25 09:45:00,37.6,33.2,30.01,SSW,202,0.0,0.0,84,0.00,,,0.00,WUHU21623XXSP,2013-01-25 17:45:00,
2013-01-25 09:50:00,37.6,33.2,30.01,SSW,202,0.0,0.0,84,0.00,,,0.00,WUHU21623XXSP,2013-01-25 17:50:00,
2013-01-25 09:55:00,37.8,33.3,30.00,SW,225,0.0,0.0,84,0.00,,,0.00,WUHU21623XXSP,2013-01-25 17:55:00,
2013-01-25 10:01:00,37.8,33.3,30.01,NNW,337,0.0,0.0,84,0.00,,,0.00,WUHU21623XXSP,2013-01-25 18:01:00,
2013-01-25 10:06:00,37.8,33.3,30.01,North,0,0.0,0.0,84,0.00,,,0.00,WUHU21623XXSP,2013-01-25 18:06:00,
2013-01-25 10:11:00,37.9,33.8,30.01,North,0,0.0,0.0,85,0.00,,,0.00,WUHU21623XXSP,2013-01-25 18:11:00,
2013-01-25 10:16:00,37.9,33.8,30.00,North,0,0.0,0.0,85,0.00,,,0.00,WUHU21623XXSP,2013-01-25 18:16:00,
2013-01-25 10:22:00,37.9,33.8,30.00,North,0,0.0,0.0,85,0.00,,,0.00,WUHU21623XXSP,2013-01-25 18:22:00,
2013-01-25 10:27:00,38.1,34.0,30.00,NNW,337,0.0,0.0,85,0.00,,,0.00,WUHU21623XXSP,2013-01-25 18:27:00,
2013-01-25 10:32:00,38.3,34.2,30.00,NNW,337,0.0,0.0,85,0.00,,,0.00,WUHU21623XXSP,2013-01-25 18:32:00,
2013-01-25 10:37:00,38.5,34.3,30.00,NNW,337,0.0,0.0,85,0.00,,,0.00,WUHU21623XXSP,2013-01-25 18:37:00,
2013-01-25 10:43:00,38.8,34.7,30.00,NNW,337,3.4,3.4,85,0.00,,,0.00,WUHU21623XXSP,2013-01-25 18:43:00,
2013-01-25 10:48:00,39.0,34.9,30.00,North,0,0.0,3.4,85,0.00,,,0.00,WUHU21623XXSP,2013-01-25 18:48:00,
2013-01-25 10:53:00,39.4,35.2,30.00,North,0,0.0,3.4,85,0.00,,,0.00,WUHU21623XXSP,2013-01-25 18:53:00,
2013-01-25 10:58:00,39.7,35.6,30.00,NNE,22,0.0,0.0,85,0.00,,,0.00,WUHU21623XXSP,2013-01-25 18:58:00,
2013-01-25 11:04:00,40.1,35.9,30.00,NNE,22,0.0,0.0,85,0.00,,,0.00,WUHU21623XXSP,2013-01-25 19:04:00,
2013-01-25 11:09:00,40.5,36.6,30.00,North,0,0.0,0.0,86,0.00,,,0.00,WUHU21623XXSP,2013-01-25 19:09:00,
2013-01-25 11:14:00,40.8,36.6,30.00,NNE,22,0.0,0.0,85,0.00,,,0.00,WUHU21623XXSP,2013-01-25 19:14:00,
2013-01-25 11:19:00,41.2,37.0,30.00,NNE,22,0.0,0.0,85,0.00,,,0.00,WUHU21623XXSP,2013-01-25 19:19:00,
2013-01-25 11:24:00,41.5,37.3,30.00,North,0,0.0,0.0,85,0.00,,,0.00,WUHU21623XXSP,2013-01-25 19:24:00,
2013-01-25 11:30:00,41.7,37.5,30.00,North,0,0.0,0.0,85,0.00,,,0.00,WUHU21623XXSP,2013-01-25 19:30:00,
2013-01-25 11:35:00,42.1,37.5,29.99,NNW,337,0.0,0.0,84,0.00,,,0.00,WUHU21623XXSP,2013-01-25 19:35:00,
2013-01-25 11:40:00,42.1,37.5,29.99,North,0,0.0,0.0,84,0.00,,,0.00,WUHU21623XXSP,2013-01-25 19:40:00,
2013-01-25 11:45:00,42.4,37.9,30.00,North,0,0.0,0.0,84,0.00,,,0.00,WUHU21623XXSP,2013-01-25 19:45:00,
2013-01-25 11:51:00,42.4,37.6,29.99,North,0,0.0,0.0,83,0.00,,,0.00,WUHU21623XXSP,2013-01-25 19:51:00,
2013-01-25 11:56:00,42.4,37.6,29.98,North,0,0.0,0.0,83,0.00,,,0.00,WUHU21623XXSP,2013-01-25 19:56:00,
2013-01-25 12:01:00,42.4,37.3,29.99,North,0,0.0,0.0,82,0.00,,,0.00,WUHU21623XXSP,2013-01-25 20:01:00,
2013-01-25 12:06:00,42.4,37.3,29.99,North,0,0.0,0.0,82,0.00,,,0.00,WUHU21623XXSP,2013-01-25 20:06:00,
2013-01-25 12:12:00,42.6,37.8,29.98,North,0,0.0,0.0,83,0.00,,,0.00,WUHU21623XXSP,2013-01-25 20:12:00,
2013-01-25 12:17:00,42.6,37.8,29.98,North,0,0.0,0.0,83,0.00,,,0.00,WUHU21623XXSP,2013-01-25 20:17:00,
2013-01-25 12:22:00,43.0,38.1,29.98,North,0,0.0,0.0,83,0.00,,,0.00,WUHU21623XXSP,2013-01-25 20:22:00,
2013-01-25 12:27:00,43.0,37.8,29.98,NE,45,0.0,0.0,82,0.00,,,0.00,WUHU21623XXSP,2013-01-25 20:27:00,
2013-01-25 12:32:00,43.3,37.9,29.97,NE,45,0.0,0.0,81,0.00,,,0.00,WUHU21623XXSP,2013-01-25 20:32:00,
2013-01-25 12:38:00,43.5,38.1,29.97,NE,45,0.0,0.0,81,0.00,,,0.00,WUHU21623XXSP,2013-01-25 20:38:00,
2013-01-25 12:43:00,43.9,38.7,29.97,NE,45,0.0,0.0,82,0.00,,,0.00,WUHU21623XXSP,2013-01-25 20:43:00,
2013-01-25 12:48:00,44.4,39.3,29.98,NNE,22,0.0,0.0,82,0.00,,,0.00,WUHU21623XXSP,2013-01-25 20:48:00,
2013-01-25 12:53:00,44.4,39.0,29.97,NNE,22,0.0,0.0,81,0.00,,,0.00,WUHU21623XXSP,2013-01-25 20:53:00,
2013-01-25 12:59:00,44.8,39.3,29.97,North,0,0.0,0.0,81,0.00,,,0.00,WUHU21623XXSP,2013-01-25 20:59:00,
2013-01-25 13:04:00,45.0,39.2,29.95,North,0,0.0,0.0,80,0.00,,,0.00,WUHU21623XXSP,2013-01-25 21:04:00,
2013-01-25 13:09:00,45.0,38.9,29.95,NE,45,0.0,0.0,79,0.00,,,0.00,WUHU21623XXSP,2013-01-25 21:09:00,
2013-01-25 13:14:00,45.0,38.9,29.95,NE,45,0.0,0.0,79,0.00,,,0.00,WUHU21623XXSP,2013-01-25 21:14:00,
2013-01-25 13:20:00,45.0,39.2,29.95,NE,45,0.0,0.0,80,0.00,,,0.00,WUHU21623XXSP,2013-01-25 21:20:00,
2013-01-25 13:25:00,45.1,39.0,29.94,North,0,0.0,0.0,79,0.00,,,0.00,WUHU21623XXSP,2013-01-25 21:25:00,
2013-01-25 13:30:00,45.1,39.0,29.94,NE,45,0.0,0.0,79,0.00,,,0.00,WUHU21623XXSP,2013-01-25 21:30:00,
2013-01-25 13:35:00,45.1,39.0,29.94,NE,45,0.0,1.8,79,0.00,,,0.00,WUHU21623XXSP,2013-01-25 21:35:00,
2013-01-25 13:41:00,45.1,39.0,29.94,NE,45,0.0,0.0,79,0.00,,,0.00,WUHU21623XXSP,2013-01-25 21:41:00,
2013-01-25 13:46:00,45.3,39.2,29.93,NNE,22,0.0,0.0,79,0.00,,,0.00,WUHU21623XXSP,2013-01-25 21:46:00,
2013-01-25 13:51:00,45.1,39.0,29.93,NNE,22,0.0,0.0,79,0.00,,,0.00,WUHU21623XXSP,2013-01-25 21:51:00,
2013-01-25 13:56:00,45.1,39.0,29.93,NE,45,0.0,0.0,79,0.00,,,0.00,WUHU21623XXSP,2013-01-25 21:56:00,
2013-01-25 14:02:00,45.1,39.0,29.93,NE,45,0.0,0.0,79,0.00,,,0.00,WUHU21623XXSP,2013-01-25 22:02:00,
2013-01-25 14:07:00,45.0,39.2,29.93,NNE,22,0.0,0.0,80,0.00,,,0.00,WUHU21623XXSP,2013-01-25 22:07:00,
2013-01-25 14:12:00,45.0,39.2,29.92,NNE,22,0.0,0.0,80,0.00,,,0.00,WUHU21623XXSP,2013-01-25 22:12:00,
2013-01-25 14:17:00,45.1,39.4,29.93,NNE,22,0.9,0.9,80,0.00,,,0.00,WUHU21623XXSP,2013-01-25 22:17:00,
2013-01-25 14:22:00,45.1,39.4,29.92,NE,45,0.0,0.9,80,0.00,,,0.00,WUHU21623XXSP,2013-01-25 22:22:00,
2013-01-25 14:28:00,45.1,39.4,29.92,NE,45,0.0,0.0,80,0.00,,,0.00,WUHU21623XXSP,2013-01-25 22:28:00,
2013-01-25 14:33:00,45.3,39.6,29.92,NE,45,0.0,0.0,80,0.00,,,0.00,WUHU21623XXSP,2013-01-25 22:33:00,
2013-01-25 14:38:00,45.5,39.4,29.92,NNE,22,3.1,3.1,79,0.00,,,0.00,WUHU21623XXSP,2013-01-25 22:38:00,
2013-01-25 14:43:00,45.7,39.6,29.92,NE,45,0.0,3.1,79,0.00,,,0.00,WUHU21623XXSP,2013-01-25 22:43:00,
2013-01-25 14:49:00,45.7,39.6,29.92,NE,45,0.0,0.0,79,0.00,,,0.00,WUHU21623XXSP,2013-01-25 22:49:00,
2013-01-25 14:54:00,45.7,39.6,29.91,NNE,22,0.0,0.0,79,0.00,,,0.00,WUHU21623XXSP,2013-01-25 22:54:00,
2013-01-25 14:59:00,46.0,39.9,29.91,NNE,22,0.0,0.0,79,0.00,,,0.00,WUHU21623XXSP,2013-01-25 22:59:00,
2013-01-25 15:04:00,46.0,39.6,29.91,NE,45,0.0,0.0,78,0.00,,,0.00,WUHU21623XXSP,2013-01-25 23:04:00,
2013-01-25 15:10:00,46.0,39.6,29.91,NNE,22,0.0,0.0,78,0.00,,,0.00,WUHU21623XXSP,2013-01-25 23:10:00,
2013-01-25 15:15:00,46.0,39.6,29.91,NNE,22,0.0,0.0,78,0.00,,,0.00,WUHU21623XXSP,2013-01-25 23:15:00,
2013-01-25 15:20:00,46.0,39.6,29.91,NNE,22,0.0,0.0,78,0.00,,,0.00,WUHU21623XXSP,2013-01-25 23:20:00,
2013-01-25 15:25:00,46.0,39.6,29.91,NNE,22,0.0,0.0,78,0.00,,,0.00,WUHU21623XXSP,2013-01-25 23:25:00,
2013-01-25 15:30:00,46.2,39.8,29.91,NE,45,0.0,0.0,78,0.00,,,0.00,WUHU21623XXSP,2013-01-25 23:30:00,
2013-01-25 15:36:00,46.2,39.8,29.91,NE,45,0.0,0.0,78,0.00,,,0.00,WUHU21623XXSP,2013-01-25 23:36:00,
2013-01-25 15:41:00,46.4,39.6,29.91,NE,45,0.0,0.0,77,0.00,,,0.00,WUHU21623XXSP,2013-01-25 23:41:00,
2013-01-25 15:46:00,46.6,39.8,29.91,NNE,22,0.0,0.0,77,0.00,,,0.00,WUHU21623XXSP,2013-01-25 23:46:00,
2013-01-25 15:51:00,46.4,39.6,29.90,NNE,22,0.0,0.0,77,0.00,,,0.00,WUHU21623XXSP,2013-01-25 23:51:00,
2013-01-25 15:57:00,46.2,39.4,29.90,NNE,22,0.0,0.0,77,0.00,,,0.00,WUHU21623XXSP,2013-01-25 23:57:00,
2013-01-25 16:02:00,46.2,39.4,29.90,NNE,22,0.0,0.0,77,0.00,,,0.00,WUHU21623XXSP,2013-01-26 00:02:00,
2013-01-25 16:07:00,46.0,39.3,29.90,NNE,22,0.0,0.0,77,0.00,,,0.00,WUHU21623XXSP,2013-01-26 00:07:00,
2013-01-25 16:12:00,45.9,39.1,29.90,NNE,22,0.0,0.0,77,0.00,,,0.00,WUHU21623XXSP,2013-01-26 00:12:00,
2013-01-25 16:18:00,45.7,38.9,29.90,NNE,22,0.0,0.0,77,0.00,,,0.00,WUHU21623XXSP,2013-01-26 00:18:00,
2013-01-25 16:23:00,45.7,38.9,29.90,NNE,22,0.0,0.0,77,0.00,,,0.00,WUHU21623XXSP,2013-01-26 00:23:00,
2013-01-25 16:28:00,45.3,38.5,29.90,NNE,22,0.0,0.0,77,0.00,,,0.00,WUHU21623XXSP,2013-01-26 00:28:00,
2013-01-25 16:33:00,45.3,38.5,29.90,NNE,22,0.0,0.0,77,0.00,,,0.00,WUHU21623XXSP,2013-01-26 00:33:00,
2013-01-25 16:39:00,45.0,38.2,29.90,NNE,22,0.0,0.0,77,0.00,,,0.00,WUHU21623XXSP,2013-01-26 00:39:00,
2013-01-25 16:44:00,45.0,38.2,29.90,NNE,22,0.0,0.0,77,0.00,,,0.00,WUHU21623XXSP,2013-01-26 00:44:00,
2013-01-25 16:49:00,44.8,38.0,29.89,NNE,22,0.0,0.0,77,0.00,,,0.00,WUHU21623XXSP,2013-01-26 00:49:00,
2013-01-25 16:54:00,44.4,38.0,29.89,NNE,22,0.0,0.0,78,0.00,,,0.00,WUHU21623XXSP,2013-01-26 00:54:00,
2013-01-25 16:59:00,44.1,37.6,29.89,NNE,22,0.0,0.0,78,0.00,,,0.00,WUHU21623XXSP,2013-01-26 00:59:00,
2013-01-25 17:05:00,43.7,37.3,29.89,NNE,22,0.0,0.0,78,0.00,,,0.00,WUHU21623XXSP,2013-01-26 01:05:00,
2013-01-25 17:10:00,43.5,37.1,29.89,NNE,22,0.0,0.0,78,0.00,,,0.00,WUHU21623XXSP,2013-01-26 01:10:00,
2013-01-25 17:15:00,43.0,36.6,29.89,NNE,22,0.0,0.0,78,0.00,,,0.00,WUHU21623XXSP,2013-01-26 01:15:00,
2013-01-25 17:20:00,42.8,36.4,29.89,NNE,22,0.0,0.0,78,0.00,,,0.00,WUHU21623XXSP,2013-01-26 01:20:00,
2013-01-25 17:26:00,42.4,36.0,29.89,NNE,22,0.0,0.0,78,0.00,,,0.00,WUHU21623XXSP,2013-01-26 01:26:00,
2013-01-25 17:31:00,41.9,35.5,29.89,NNE,22,0.0,0.0,78,0.00,,,0.00,WUHU21623XXSP,2013-01-26 01:31:00,
2013-01-25 17:36:00,41.5,35.5,29.89,NNE,22,0.0,0.0,79,0.00,,,0.00,WUHU21623XXSP,2013-01-26 01:36:00,
2013-01-25 17:41:00,41.2,35.1,29.89,NNE,22,0.0,0.0,79,0.00,,,0.00,WUHU21623XXSP,2013-01-26 01:41:00,
2013-01-25 17:47:00,40.8,34.7,29.89,NNE,22,0.0,0.0,79,0.00,,,0.00,WUHU21623XXSP,2013-01-26 01:47:00,
2013-01-25 17:52:00,40.6,34.6,29.89,NNE,22,0.0,0.0,79,0.00,,,0.00,WUHU21623XXSP,2013-01-26 01:52:00,
2013-01-25 17:57:00,40.3,34.6,29.90,NNE,22,0.0,0.0,80,0.00,,,0.00,WUHU21623XXSP,2013-01-26 01:57:00,
2013-01-25 18:02:00,39.9,34.3,29.90,NNE,22,0.0,0.0,80,0.00,,,0.00,WUHU21623XXSP,2013-01-26 02:02:00,
2013-01-25 18:08:00,39.9,34.3,29.90,NNE,22,0.0,0.0,80,0.00,,,0.00,WUHU21623XXSP,2013-01-26 02:08:00,
2013-01-25 18:13:00,39.6,33.9,29.89,NNE,22,0.0,0.0,80,0.00,,,0.00,WUHU21623XXSP,2013-01-26 02:13:00,
2013-01-25 18:18:00,39.4,34.1,29.89,NNE,22,0.0,0.0,81,0.00,,,0.00,WUHU21623XXSP,2013-01-26 02:18:00,
2013-01-25 18:23:00,39.0,33.7,29.89,NNE,22,0.0,0.0,81,0.00,,,0.00,WUHU21623XXSP,2013-01-26 02:23:00,
2013-01-25 18:28:00,38.5,33.2,29.89,NNE,22,0.0,0.0,81,0.00,,,0.00,WUHU21623XXSP,2013-01-26 02:28:00,
2013-01-25 18:34:00,38.3,33.0,29.89,NNE,22,0.0,0.0,81,0.00,,,0.00,WUHU21623XXSP,2013-01-26 02:34:00,
2013-01-25 18:39:00,37.9,32.6,29.88,NNE,22,0.0,0.0,81,0.00,,,0.00,WUHU21623XXSP,2013-01-26 02:39:00,
2013-01-25 18:44:00,37.6,32.3,29.89,NNE,22,0.0,0.0,81,0.00,,,0.00,WUHU21623XXSP,2013-01-26 02:44:00,
2013-01-25 18:49:00,37.2,31.9,29.88,NNE,22,0.0,0.0,81,0.00,,,0.00,WUHU21623XXSP,2013-01-26 02:49:00,
2013-01-25 18:55:00,37.2,31.9,29.89,ENE,67,0.0,0.0,81,0.00,,,0.00,WUHU21623XXSP,2013-01-26 02:55:00,
2013-01-25 19:00:00,36.7,31.4,29.89,ENE,67,0.0,0.0,81,0.00,,,0.00,WUHU21623XXSP,2013-01-26 03:00:00,
2013-01-25 19:06:00,36.3,31.0,29.89,ENE,67,0.0,0.0,81,0.00,,,0.00,WUHU21623XXSP,2013-01-26 03:06:00,
2013-01-25 19:11:00,36.3,31.3,29.89,SSE,157,2.5,2.5,82,0.00,,,0.00,WUHU21623XXSP,2013-01-26 03:11:00,
2013-01-25 19:16:00,36.1,31.4,29.89,SSE,157,0.0,2.5,83,0.00,,,0.00,WUHU21623XXSP,2013-01-26 03:16:00,
2013-01-25 19:21:00,36.3,31.6,29.89,ENE,67,0.0,0.9,83,0.00,,,0.00,WUHU21623XXSP,2013-01-26 03:21:00,
2013-01-25 19:26:00,36.3,31.9,29.89,ENE,67,0.0,0.0,84,0.00,,,0.00,WUHU21623XXSP,2013-01-26 03:26:00,
2013-01-25 19:32:00,36.3,31.9,29.89,ENE,67,0.0,0.0,84,0.00,,,0.00,WUHU21623XXSP,2013-01-26 03:32:00,
2013-01-25 19:37:00,36.5,32.1,29.88,ENE,67,0.0,0.0,84,0.00,,,0.00,WUHU21623XXSP,2013-01-26 03:37:00,
2013-01-25 19:42:00,36.7,32.3,29.88,ENE,67,0.0,0.0,84,0.00,,,0.00,WUHU21623XXSP,2013-01-26 03:42:00,
2013-01-25 19:47:00,36.9,32.4,29.89,ENE,67,0.0,0.0,84,0.00,,,0.00,WUHU21623XXSP,2013-01-26 03:47:00,
2013-01-25 19:53:00,37.0,32.6,29.89,ENE,67,0.0,0.0,84,0.00,,,0.00,WUHU21623XXSP,2013-01-26 03:53:00,
2013-01-25 19:58:00,37.2,33.1,29.89,ENE,67,0.0,0.0,85,0.00,,,0.00,WUHU21623XXSP,2013-01-26 03:58:00,
2013-01-25 20:03:00,37.2,33.1,29.88,ENE,67,0.0,0.0,85,0.00,,,0.00,WUHU21623XXSP,2013-01-26 04:03:00,
2013-01-25 20:08:00,37.4,33.3,29.88,ENE,67,0.0,0.0,85,0.00,,,0.00,WUHU21623XXSP,2013-01-26 04:08:00,
2013-01-25 20:14:00,37.4,33.3,29.89,ENE,67,0.0,0.0,85,0.00,,,0.00,WUHU21623XXSP,2013-01-26 04:14:00,
2013-01-25 20:19:00,37.6,33.4,29.89,ENE,67,0.0,0.0,85,0.00,,,0.00,WUHU21623XXSP,2013-01-26 04:19:00,
2013-01-25 20:24:00,37.6,33.4,29.89,ENE,67,0.0,0.0,85,0.00,,,0.00,WUHU21623XXSP,2013-01-26 04:24:00,
2013-01-25 20:29:00,37.6,33.4,29.89,ENE,67,0.0,0.0,85,0.00,,,0.00,WUHU21623XXSP,2013-01-26 04:29:00,
2013-01-25 20:35:00,37.6,33.4,29.89,ENE,67,0.0,0.0,85,0.00,,,0.00,WUHU21623XXSP,2013-01-26 04:35:00,
2013-01-25 20:40:00,37.6,33.4,29.89,ENE,67,0.0,0.0,85,0.00,,,0.00,WUHU21623XXSP,2013-01-26 04:40:00,
2013-01-25 20:45:00,37.6,33.4,29.89,ENE,67,0.0,0.0,85,0.00,,,0.00,WUHU21623XXSP,2013-01-26 04:45:00,
2013-01-25 20:50:00,37.4,33.3,29.89,ENE,67,0.0,0.0,85,0.00,,,0.00,WUHU21623XXSP,2013-01-26 04:50:00,
2013-01-25 20:56:00,37.4,33.3,29.88,NNE,22,0.0,0.0,85,0.00,,,0.00,WUHU21623XXSP,2013-01-26 04:56:00,
2013-01-25 21:02:00,37.4,33.3,29.88,NNE,22,0.0,0.0,85,0.00,,,0.00,WUHU21623XXSP,2013-01-26 05:02:00,
2013-01-25 21:07:00,37.4,33.3,29.88,NNE,22,0.0,0.0,85,0.00,,,0.00,WUHU21623XXSP,2013-01-26 05:07:00,
2013-01-25 21:12:00,37.2,33.1,29.88,NE,45,0.0,0.0,85,0.00,,,0.00,WUHU21623XXSP,2013-01-26 05:12:00,
2013-01-25 21:17:00,37.2,33.1,29.88,NE,45,0.0,0.0,85,0.00,,,0.00,WUHU21623XXSP,2013-01-26 05:17:00,
2013-01-25 21:23:00,37.0,32.9,29.89,NE,45,0.0,0.0,85,0.00,,,0.00,WUHU21623XXSP,2013-01-26 05:23:00,
2013-01-25 21:28:00,36.7,32.5,29.89,NNE,22,0.0,0.0,85,0.00,,,0.00,WUHU21623XXSP,2013-01-26 05:28:00,
2013-01-25 21:33:00,36.5,32.4,29.88,NNE,22,0.0,0.0,85,0.00,,,0.00,WUHU21623XXSP,2013-01-26 05:33:00,
2013-01-25 21:38:00,36.3,32.2,29.88,NNE,22,0.0,0.0,85,0.00,,,0.00,WUHU21623XXSP,2013-01-26 05:38:00,
2013-01-25 21:44:00,36.3,32.2,29.89,NE,45,0.0,0.0,85,0.00,,,0.00,WUHU21623XXSP,2013-01-26 05:44:00,
2013-01-25 21:49:00,36.1,32.0,29.88,NE,45,0.0,0.0,85,0.00,,,0.00,WUHU21623XXSP,2013-01-26 05:49:00,
2013-01-25 21:54:00,36.1,32.0,29.89,NNE,22,0.0,0.0,85,0.00,,,0.00,WUHU21623XXSP,2013-01-26 05:54:00,
2013-01-25 21:59:00,36.1,32.0,29.89,NNE,22,0.0,0.0,85,0.00,,,0.00,WUHU21623XXSP,2013-01-26 05:59:00,
2013-01-25 22:05:00,36.0,31.8,29.89,NNE,22,0.0,0.0,85,0.00,,,0.00,WUHU21623XXSP,2013-01-26 06:05:00,
2013-01-25 22:10:00,36.0,31.8,29.89,NE,45,0.0,0.0,85,0.00,,,0.00,WUHU21623XXSP,2013-01-26 06:10:00,
2013-01-25 22:15:00,36.0,31.8,29.89,North,0,0.0,0.0,85,0.00,,,0.00,WUHU21623XXSP,2013-01-26 06:15:00,
2013-01-25 22:20:00,36.0,31.8,29.89,North,0,0.0,0.0,85,0.00,,,0.00,WUHU21623XXSP,2013-01-26 06:20:00,
2013-01-25 22:25:00,35.8,31.6,29.89,North,0,0.0,0.0,85,0.00,,,0.00,WUHU21623XXSP,2013-01-26 06:25:00,
2013-01-25 22:31:00,35.8,31.6,29.89,North,0,0.0,0.0,85,0.00,,,0.00,WUHU21623XXSP,2013-01-26 06:31:00,
2013-01-25 22:36:00,35.4,31.3,29.89,North,0,0.0,0.0,85,0.00,,,0.00,WUHU21623XXSP,2013-01-26 06:36:00,
2013-01-25 22:41:00,35.4,31.3,29.89,North,0,0.0,0.0,85,0.00,,,0.00,WUHU21623XXSP,2013-01-26 06:41:00,
2013-01-25 22:46:00,35.4,31.3,29.88,North,0,0.0,0.0,85,0.00,,,0.00,WUHU21623XXSP,2013-01-26 06:46:00,
2013-01-25 22:52:00,35.4,31.3,29.89,North,0,0.0,0.0,85,0.00,,,0.00,WUHU21623XXSP,2013-01-26 06:52:00,
2013-01-25 22:57:00,35.2,31.1,29.90,North,0,0.0,0.0,85,0.00,,,0.00,WUHU21623XXSP,2013-01-26 06:57:00,
2013-01-25 23:02:00,35.2,31.1,29.90,North,0,0.0,0.0,85,0.00,,,0.00,WUHU21623XXSP,2013-01-26 07:02:00,
2013-01-25 23:07:00,35.2,31.1,29.89,North,0,0.0,0.0,85,0.00,,,0.00,WUHU21623XXSP,2013-01-26 07:07:00,
2013-01-25 23:13:00,35.2,31.1,29.90,North,0,0.0,0.0,85,0.00,,,0.00,WUHU21623XXSP,2013-01-26 07:13:00,
2013-01-25 23:18:00,35.2,31.1,29.90,North,0,0.0,0.0,85,0.00,,,0.00,WUHU21623XXSP,2013-01-26 07:18:00,
2013-01-25 23:23:00,35.2,31.1,29.90,North,0,0.0,0.0,85,0.00,,,0.00,WUHU21623XXSP,2013-01-26 07:23:00,
2013-01-25 23:28:00,35.2,31.1,29.90,North,0,0.0,0.0,85,0.00,,,0.00,WUHU21623XXSP,2013-01-26 07:28:00,
2013-01-25 23:34:00,35.2,31.4,29.89,NNW,337,0.0,0.0,86,0.00,,,0.00,WUHU21623XXSP,2013-01-26 07:34:00,
2013-01-25 23:39:00,35.2,31.4,29.89,NNW,337,0.0,0.0,86,0.00,,,0.00,WUHU21623XXSP,2013-01-26 07:39:00,
2013-01-25 23:44:00,35.2,31.4,29.89,NNW,337,0.0,0.0,86,0.00,,,0.00,WUHU21623XXSP,2013-01-26 07:44:00,
2013-01-25 23:49:00,35.2,31.4,29.89,NE,45,0.0,0.0,86,0.00,,,0.00,WUHU21623XXSP,2013-01-26 07:49:00,
2013-01-25 23:54:00,35.1,30.9,29.89,NE,45,0.0,0.0,85,0.00,,,0.00,WUHU21623XXSP,2013-01-26 07:54:00,